ROMD(METAR)
08/13 14:00
METAR ROMD 130500Z AUTO 07006KT 360V160 9999 FEW013 31/27 Q1011 RMK
A2985=
戻る
トップページへ戻る
IMOC Co,.Ltd.